createdAt,value
2019-02-21T00:02:21.506Z,101665.25
2019-02-21T00:04:53.603Z,101668.33
2019-02-21T00:07:25.916Z,101673.64
2019-02-21T00:09:57.555Z,101667.95
2019-02-21T00:12:29.576Z,101678.56
2019-02-21T00:14:59.839Z,101679.00
2019-02-21T00:17:30.127Z,101677.60
2019-02-21T00:20:00.393Z,101678.45
2019-02-21T00:22:30.635Z,101675.31
2019-02-21T00:25:00.895Z,101679.27
2019-02-21T00:27:31.155Z,101686.30
2019-02-21T00:30:01.417Z,101682.67
2019-02-21T00:32:33.240Z,101679.63
2019-02-21T00:35:03.504Z,101679.53
2019-02-21T00:37:33.744Z,101681.81
2019-02-21T00:40:05.634Z,101681.30
2019-02-21T00:42:35.886Z,101680.41
2019-02-21T00:45:06.153Z,101678.59
2019-02-21T00:47:36.402Z,101680.79
2019-02-21T00:50:06.669Z,101681.63
2019-02-21T00:52:37.735Z,101677.65
2019-02-21T00:55:08.005Z,101676.33
2019-02-21T00:57:38.262Z,101685.64
2019-02-21T01:00:11.735Z,101683.91
2019-02-21T01:02:42.070Z,101689.62
2019-02-21T01:05:12.330Z,101691.84
2019-02-21T01:07:42.673Z,101687.33
2019-02-21T01:10:12.939Z,101691.84
2019-02-21T01:12:44.155Z,101691.44
2019-02-21T01:15:14.437Z,101691.00
2019-02-21T01:17:44.693Z,101691.02
2019-02-21T01:20:15.059Z,101691.44
2019-02-21T01:22:45.314Z,101692.81
2019-02-21T01:25:15.541Z,101682.21
2019-02-21T01:27:46.025Z,101687.06
2019-02-21T01:30:16.271Z,101681.83
2019-02-21T01:32:46.517Z,101683.55
2019-02-21T01:35:16.758Z,101688.45
2019-02-21T01:37:47.012Z,101681.81
2019-02-21T01:40:17.285Z,101678.33
2019-02-21T01:42:47.563Z,101677.00
2019-02-21T01:45:19.756Z,101680.55
2019-02-21T01:47:50.001Z,101676.62
2019-02-21T01:50:20.257Z,101679.70
2019-02-21T01:52:51.284Z,101680.72
2019-02-21T01:55:21.520Z,101676.27
2019-02-21T01:57:51.813Z,101680.35
2019-02-21T02:00:22.069Z,101678.16
2019-02-21T02:02:52.324Z,101678.20
2019-02-21T02:05:22.567Z,101680.92
2019-02-21T02:07:52.832Z,101675.62
2019-02-21T02:10:23.067Z,101677.85
2019-02-21T02:12:53.319Z,101673.84
2019-02-21T02:15:23.554Z,101679.16
2019-02-21T02:17:53.804Z,101678.75
2019-02-21T02:20:25.119Z,101676.63
2019-02-21T02:22:55.375Z,101673.55
2019-02-21T02:25:25.607Z,101666.59
2019-02-21T02:27:56.152Z,101672.38
2019-02-21T02:30:26.466Z,101666.17
2019-02-21T02:32:56.703Z,101667.02
2019-02-21T02:35:26.990Z,101665.27
2019-02-21T02:37:57.256Z,101661.30
2019-02-21T02:40:27.512Z,101659.53
2019-02-21T02:42:57.785Z,101662.24
2019-02-21T02:45:28.014Z,101661.82
2019-02-21T02:47:58.273Z,101660.11
2019-02-21T02:50:28.553Z,101661.48
2019-02-21T02:52:59.653Z,101656.22
2019-02-21T02:55:29.899Z,101661.13
2019-02-21T02:58:00.167Z,101652.82
2019-02-21T03:00:30.399Z,101648.93
2019-02-21T03:03:00.656Z,101650.28
2019-02-21T03:05:30.906Z,101657.89
2019-02-21T03:08:01.171Z,101654.81
2019-02-21T03:10:31.442Z,101653.56
2019-02-21T03:13:01.776Z,101662.45
2019-02-21T03:15:32.029Z,101660.27
2019-02-21T03:18:02.294Z,101653.27
2019-02-21T03:20:32.545Z,101653.30
2019-02-21T03:23:02.799Z,101659.08
2019-02-21T03:25:33.043Z,101656.03
2019-02-21T03:28:03.363Z,101656.10
2019-02-21T03:30:33.690Z,101651.73
2019-02-21T03:33:03.994Z,101649.98
2019-02-21T03:35:34.210Z,101654.00
2019-02-21T03:38:04.463Z,101655.72
2019-02-21T03:40:35.699Z,101649.51
2019-02-21T03:43:07.674Z,101651.73
2019-02-21T03:45:37.918Z,101653.47
2019-02-21T03:48:08.173Z,101656.98
2019-02-21T03:50:38.447Z,101652.14
2019-02-21T03:53:09.487Z,101654.81
2019-02-21T03:55:39.763Z,101656.61
2019-02-21T03:58:10.046Z,101656.21
2019-02-21T04:00:40.385Z,101652.76
2019-02-21T04:03:10.710Z,101653.19
2019-02-21T04:05:42.025Z,101651.47
2019-02-21T04:08:12.595Z,101644.92
2019-02-21T04:10:42.846Z,101648.52
2019-02-21T04:13:15.327Z,101642.83
2019-02-21T04:15:46.207Z,101642.44
2019-02-21T04:18:16.463Z,101643.31
2019-02-21T04:20:46.713Z,101646.34
2019-02-21T04:23:17.024Z,101640.20
2019-02-21T04:25:48.789Z,101647.34
2019-02-21T04:28:19.065Z,101643.44
2019-02-21T04:30:49.314Z,101643.02
2019-02-21T04:33:19.559Z,101643.08
2019-02-21T04:35:49.827Z,101639.57
2019-02-21T04:38:20.143Z,101636.86
2019-02-21T04:40:50.401Z,101632.88
2019-02-21T04:43:20.649Z,101632.84
2019-02-21T04:45:50.913Z,101630.53
2019-02-21T04:48:21.161Z,101632.69
2019-02-21T04:50:54.400Z,101638.84
2019-02-21T04:53:24.143Z,101634.34
2019-02-21T04:55:54.393Z,101634.34
2019-02-21T04:58:24.656Z,101634.34
2019-02-21T05:00:54.907Z,101626.84
2019-02-21T05:03:25.152Z,101634.85
2019-02-21T05:05:55.577Z,101626.45
2019-02-21T05:08:25.825Z,101627.78
2019-02-21T05:10:56.078Z,101626.47
2019-02-21T05:13:26.332Z,101626.05
2019-02-21T05:15:56.687Z,101626.47
2019-02-21T05:18:26.977Z,101618.51
2019-02-21T05:20:57.216Z,101618.97
2019-02-21T05:23:27.485Z,101620.67
2019-02-21T05:25:57.747Z,101623.75
2019-02-21T05:28:29.743Z,101628.62
2019-02-21T05:31:07.491Z,101629.05
2019-02-21T05:33:51.384Z,101627.30
2019-02-21T05:36:27.306Z,101625.07
2019-02-21T05:39:01.908Z,101618.91
2019-02-21T05:41:47.342Z,101629.05
2019-02-21T05:44:25.138Z,101625.53
2019-02-21T05:46:57.061Z,101637.05
2019-02-21T05:49:31.839Z,101633.53
2019-02-21T05:52:19.057Z,101637.89
2019-02-21T05:55:09.911Z,101636.58
2019-02-21T05:57:41.793Z,101640.56
2019-02-21T06:00:16.167Z,101629.56
2019-02-21T06:03:03.966Z,101632.69
2019-02-21T06:05:35.890Z,101636.68
2019-02-21T06:08:13.667Z,101634.95
2019-02-21T06:10:45.549Z,101633.62
2019-02-21T06:13:20.399Z,101633.19
2019-02-21T06:15:52.294Z,101635.45
2019-02-21T06:18:24.257Z,101641.67
2019-02-21T06:20:59.114Z,101643.47
2019-02-21T06:23:35.396Z,101650.11
2019-02-21T06:26:13.392Z,101645.80
2019-02-21T06:29:03.360Z,101649.70
2019-02-21T06:31:33.603Z,101647.13
2019-02-21T06:34:03.844Z,101647.13
2019-02-21T06:36:35.611Z,101650.22
2019-02-21T06:39:08.168Z,101652.42
2019-02-21T06:41:38.429Z,101655.45
2019-02-21T06:44:08.708Z,101652.27
2019-02-21T06:46:38.940Z,101634.97
2019-02-21T06:49:09.200Z,101644.22
2019-02-21T06:51:39.520Z,101646.87
2019-02-21T06:54:09.798Z,101651.72
2019-02-21T06:56:40.085Z,101650.02
2019-02-21T06:59:10.328Z,101643.85
2019-02-21T07:01:40.593Z,101644.32
2019-02-21T07:04:10.865Z,101643.45
2019-02-21T07:06:41.334Z,101637.24
2019-02-21T07:09:11.551Z,101640.79
2019-02-21T07:11:41.801Z,101637.63
2019-02-21T07:14:12.063Z,101649.05
2019-02-21T07:16:42.327Z,101652.11
2019-02-21T07:19:12.602Z,101637.42
2019-02-21T07:21:42.965Z,101644.00
2019-02-21T07:24:13.220Z,101649.28
2019-02-21T07:26:43.487Z,101645.28
2019-02-21T07:29:13.758Z,101643.11
2019-02-21T07:31:44.097Z,101649.66
2019-02-21T07:34:14.413Z,101644.35
2019-02-21T07:36:44.660Z,101642.03
2019-02-21T07:39:18.545Z,101648.94
2019-02-21T07:41:46.884Z,101648.42
2019-02-21T07:44:17.142Z,101653.20
2019-02-21T07:46:47.387Z,101651.86
2019-02-21T07:49:17.661Z,101650.47
2019-02-21T07:51:48.045Z,101655.66
2019-02-21T07:54:18.272Z,101655.44
2019-02-21T07:56:48.529Z,101641.11
2019-02-21T07:59:18.786Z,101648.49
2019-02-21T08:01:49.083Z,101645.95
2019-02-21T08:04:19.316Z,101647.31
2019-02-21T08:06:49.687Z,101649.49
2019-02-21T08:09:19.948Z,101652.52
2019-02-21T08:11:50.217Z,101646.69
2019-02-21T08:14:20.471Z,101649.29
2019-02-21T08:16:50.724Z,101645.29
2019-02-21T08:19:22.058Z,101642.55
2019-02-21T08:21:54.093Z,101639.39
2019-02-21T08:24:24.497Z,101635.89
2019-02-21T08:26:55.161Z,101646.43
2019-02-21T08:29:25.441Z,101646.73
2019-02-21T08:31:55.707Z,101643.80
2019-02-21T08:34:27.693Z,101645.02
2019-02-21T08:36:58.019Z,101642.05
2019-02-21T08:39:28.306Z,101641.47
2019-02-21T08:41:58.746Z,101643.84
2019-02-21T08:44:29.166Z,101633.73
2019-02-21T08:46:59.438Z,101635.55
2019-02-21T08:49:29.737Z,101635.02
2019-02-21T08:51:59.984Z,101632.79
2019-02-21T08:54:31.318Z,101636.39
2019-02-21T08:57:01.576Z,101631.08
2019-02-21T08:59:31.841Z,101631.62
2019-02-21T09:02:04.888Z,101628.55
2019-02-21T09:04:34.152Z,101633.91
2019-02-21T09:07:04.405Z,101635.47
2019-02-21T09:09:34.753Z,101632.33
2019-02-21T09:12:05.739Z,101636.31
2019-02-21T09:14:36.227Z,101635.03
2019-02-21T09:17:06.486Z,101639.09
2019-02-21T09:19:38.361Z,101641.78
2019-02-21T09:22:08.615Z,101639.73
2019-02-21T09:24:42.227Z,101638.47
2019-02-21T09:27:11.901Z,101638.02
2019-02-21T09:29:42.239Z,101638.04
2019-02-21T09:32:12.511Z,101642.32
2019-02-21T09:34:42.789Z,101635.33
2019-02-21T09:37:13.068Z,101637.02
2019-02-21T09:39:44.444Z,101645.36
2019-02-21T09:42:14.785Z,101640.03
2019-02-21T09:44:45.133Z,101643.57
2019-02-21T09:47:15.401Z,101639.59
2019-02-21T09:49:45.682Z,101646.25
2019-02-21T09:52:15.946Z,101642.69
2019-02-21T09:54:47.500Z,101646.59
2019-02-21T09:57:18.859Z,101645.24
2019-02-21T09:59:49.132Z,101649.10
2019-02-21T10:02:19.385Z,101641.92
2019-02-21T10:04:49.639Z,101630.78
2019-02-21T10:07:19.895Z,101642.52
2019-02-21T10:09:50.171Z,101636.59
2019-02-21T10:12:20.416Z,101632.05
2019-02-21T10:14:50.747Z,101638.06
2019-02-21T10:17:20.997Z,101626.59
2019-02-21T10:19:51.272Z,101619.95
2019-02-21T10:22:21.569Z,101622.59
2019-02-21T10:24:56.944Z,101622.50
2019-02-21T10:27:27.302Z,101622.63
2019-02-21T10:29:57.542Z,101621.00
2019-02-21T10:32:28.764Z,101615.42
2019-02-21T10:34:59.035Z,101621.38
2019-02-21T10:37:29.279Z,101610.97
2019-02-21T10:39:59.567Z,101615.12
2019-02-21T10:42:29.830Z,101604.50
2019-02-21T10:45:00.649Z,101606.28
2019-02-21T10:47:32.183Z,101612.11
2019-02-21T10:50:02.691Z,101606.89
2019-02-21T10:52:32.986Z,101596.55
2019-02-21T10:55:03.530Z,101588.66
2019-02-21T10:57:33.802Z,101590.31
2019-02-21T11:00:12.407Z,101583.84
2019-02-21T11:02:43.989Z,101590.28
2019-02-21T11:05:14.321Z,101572.02
2019-02-21T11:07:44.567Z,101573.27
2019-02-21T11:10:19.174Z,101579.02
2019-02-21T11:12:49.416Z,101564.79
2019-02-21T11:15:22.015Z,101571.78
2019-02-21T11:17:52.277Z,101570.45
2019-02-21T11:20:22.719Z,101566.92
2019-02-21T11:22:54.477Z,101572.77
2019-02-21T11:25:24.742Z,101560.58
2019-02-21T11:27:55.027Z,101556.63
2019-02-21T11:30:25.277Z,101555.27
2019-02-21T11:32:55.555Z,101553.07
2019-02-21T11:35:25.841Z,101555.17
2019-02-21T11:37:56.093Z,101561.30
2019-02-21T11:40:26.619Z,101556.45
2019-02-21T11:42:56.879Z,101551.75
2019-02-21T11:45:27.248Z,101543.68
2019-02-21T11:47:57.531Z,101542.34
2019-02-21T11:50:27.780Z,101540.95
2019-02-21T11:52:58.076Z,101535.27
2019-02-21T11:55:28.358Z,101534.13
2019-02-21T11:57:59.444Z,101524.42
2019-02-21T12:00:32.378Z,101527.54
2019-02-21T12:03:02.939Z,101520.43
2019-02-21T12:05:33.288Z,101524.66
2019-02-21T12:08:03.565Z,101525.50
2019-02-21T12:10:33.942Z,101525.80
2019-02-21T12:13:04.245Z,101525.77
2019-02-21T12:15:34.507Z,101521.01
2019-02-21T12:18:04.869Z,101515.85
2019-02-21T12:20:35.315Z,101512.92
2019-02-21T12:23:05.608Z,101510.13
2019-02-21T12:25:35.933Z,101507.31
2019-02-21T12:28:06.234Z,101514.95
2019-02-21T12:30:37.745Z,101504.72
2019-02-21T12:33:08.109Z,101507.02
2019-02-21T12:35:38.402Z,101515.08
2019-02-21T12:38:13.543Z,101510.20
2019-02-21T12:40:44.462Z,101497.20
2019-02-21T12:43:14.741Z,101491.86
2019-02-21T12:45:45.101Z,101492.26
2019-02-21T12:48:15.386Z,101486.08
2019-02-21T12:50:45.651Z,101494.52
2019-02-21T12:53:15.901Z,101488.89
2019-02-21T12:55:46.221Z,101494.52
2019-02-21T12:58:17.353Z,101481.63
2019-02-21T13:00:48.705Z,101488.11
2019-02-21T13:03:18.973Z,101495.25
2019-02-21T13:05:49.266Z,101496.68
2019-02-21T13:08:19.672Z,101493.03
2019-02-21T13:10:52.434Z,101498.47
2019-02-21T13:13:23.249Z,101510.94
2019-02-21T13:15:53.515Z,101499.00
2019-02-21T13:18:23.784Z,101499.06
2019-02-21T13:20:55.081Z,101503.55
2019-02-21T13:23:25.361Z,101507.02
2019-02-21T13:25:55.891Z,101505.72
2019-02-21T13:28:27.606Z,101507.04
2019-02-21T13:30:58.024Z,101512.42
2019-02-21T13:33:29.394Z,101502.31
2019-02-21T13:35:59.656Z,101507.97
2019-02-21T13:38:29.931Z,101504.81
2019-02-21T13:41:00.176Z,101509.17
2019-02-21T13:43:30.491Z,101506.05
2019-02-21T13:46:00.784Z,101509.61
2019-02-21T13:48:31.061Z,101501.50
2019-02-21T13:51:01.387Z,101505.16
2019-02-21T13:53:31.614Z,101507.04
2019-02-21T13:56:01.893Z,101512.95
2019-02-21T13:58:32.173Z,101512.08
2019-02-21T14:01:02.422Z,101506.34
2019-02-21T14:03:33.823Z,101506.80
2019-02-21T14:06:05.063Z,101503.64
2019-02-21T14:08:35.327Z,101505.97
2019-02-21T14:11:05.608Z,101503.27
2019-02-21T14:13:36.070Z,101506.40
2019-02-21T14:16:06.342Z,101505.07
2019-02-21T14:18:36.718Z,101497.98
2019-02-21T14:21:06.976Z,101497.16
2019-02-21T14:23:37.468Z,101498.98
2019-02-21T14:26:07.784Z,101500.80
2019-02-21T14:28:38.192Z,101497.28
2019-02-21T14:31:13.427Z,101490.67
2019-02-21T14:33:43.675Z,101495.09
2019-02-21T14:36:16.882Z,101494.16
2019-02-21T14:38:46.193Z,101506.12
2019-02-21T14:41:18.121Z,101503.09
2019-02-21T14:51:42.917Z,101490.17
2019-02-21T14:54:13.190Z,101480.87
2019-02-21T14:56:43.583Z,101483.53
2019-02-21T14:59:13.922Z,101478.15
2019-02-21T15:01:48.285Z,101480.31
2019-02-21T15:04:18.833Z,101478.48
2019-02-21T15:06:50.345Z,101487.33
2019-02-21T15:09:20.830Z,101479.32
2019-02-21T15:11:51.259Z,101475.73
2019-02-21T15:18:21.555Z,101466.43
2019-02-21T15:20:51.899Z,101459.41
2019-02-21T15:23:22.144Z,101468.69
2019-02-21T15:25:52.740Z,101472.67
2019-02-21T15:28:26.504Z,101476.23
2019-02-21T15:31:00.259Z,101473.56
2019-02-21T15:33:33.614Z,101471.37
2019-02-21T15:36:04.064Z,101474.90
2019-02-21T15:38:34.343Z,101470.45
2019-02-21T15:41:04.816Z,101472.24
2019-02-21T15:43:35.139Z,101471.84
2019-02-21T15:46:11.850Z,101475.33
2019-02-21T15:48:44.509Z,101466.45
2019-02-21T15:51:14.228Z,101462.04
2019-02-21T15:53:44.488Z,101470.41
2019-02-21T15:56:14.890Z,101471.71
2019-02-21T15:58:52.680Z,101468.19
2019-02-21T16:01:27.401Z,101473.94
2019-02-21T16:04:16.943Z,101469.52
2019-02-21T16:06:51.791Z,101462.94
2019-02-21T16:09:19.312Z,101458.89
2019-02-21T16:16:08.720Z,101468.22
2019-02-21T16:19:24.015Z,101459.81
2019-02-21T16:21:54.173Z,101456.75
2019-02-21T16:24:24.420Z,101448.81
2019-02-21T16:26:54.670Z,101457.25
2019-02-21T16:29:25.933Z,101457.28
2019-02-21T16:31:58.678Z,101452.43
2019-02-21T16:34:33.071Z,101452.43
2019-02-21T16:37:05.697Z,101448.91
2019-02-21T16:39:41.279Z,101449.81
2019-02-21T16:42:11.821Z,101448.02
2019-02-21T16:44:43.701Z,101447.98
2019-02-21T16:47:17.799Z,101451.97
2019-02-21T16:49:49.354Z,101455.45
2019-02-21T16:52:20.035Z,101461.20
2019-02-21T16:54:53.416Z,101457.66
2019-02-21T16:57:22.859Z,101448.81
2019-02-21T17:00:01.468Z,101456.72
2019-02-21T17:02:39.782Z,101449.64
2019-02-21T17:05:13.405Z,101453.16
2019-02-21T17:07:44.398Z,101464.27
2019-02-21T17:10:16.761Z,101460.28
2019-02-21T17:12:48.811Z,101455.42
2019-02-21T17:15:21.102Z,101460.31
2019-02-21T17:17:51.605Z,101453.27
2019-02-21T17:20:25.368Z,101458.55
2019-02-21T17:22:55.733Z,101451.07
2019-02-21T17:25:28.527Z,101458.98
2019-02-21T17:27:59.241Z,101457.22
2019-02-21T17:30:29.511Z,101458.05
2019-02-21T17:32:59.854Z,101450.94
2019-02-21T17:35:30.114Z,101451.80
2019-02-21T17:38:00.445Z,101446.48
2019-02-21T17:40:31.723Z,101453.50
2019-02-21T17:43:02.469Z,101461.41
2019-02-21T17:45:33.025Z,101452.11
2019-02-21T17:48:03.873Z,101456.95
2019-02-21T17:54:45.754Z,101456.86
2019-02-21T18:11:38.764Z,101448.25
2019-02-21T18:14:09.048Z,101443.83
2019-02-21T18:16:40.495Z,101442.50
2019-02-21T18:19:14.591Z,101441.57
2019-02-21T18:21:45.274Z,101438.84
2019-02-21T18:24:19.383Z,101437.52
2019-02-21T18:26:54.715Z,101439.28
2019-02-21T18:29:26.969Z,101429.14
2019-02-21T18:35:58.354Z,101438.41
2019-02-21T18:38:30.917Z,101435.75
2019-02-21T18:41:01.999Z,101424.32
2019-02-21T18:43:32.801Z,101418.11
2019-02-21T18:46:03.219Z,101429.97
2019-02-21T18:48:33.840Z,101429.11
2019-02-21T18:51:05.357Z,101430.03
2019-02-21T18:53:36.374Z,101434.92
2019-02-21T18:56:16.016Z,101426.95
2019-02-21T18:58:55.641Z,101431.80
2019-02-21T19:01:40.062Z,101424.72
2019-02-21T19:04:56.529Z,101419.83
2019-02-21T19:07:33.981Z,101433.09
2019-02-21T19:10:11.263Z,101432.63
2019-02-21T19:12:43.811Z,101425.16
2019-02-21T19:15:23.607Z,101425.08
2019-02-21T19:18:25.016Z,101429.53
2019-02-21T19:24:57.146Z,101422.89
2019-02-21T19:27:36.908Z,101418.44
2019-02-21T19:30:00.623Z,101419.27
2019-02-21T19:32:34.134Z,101416.56
2019-02-21T19:35:12.268Z,101415.17
2019-02-21T19:38:22.924Z,101418.66
2019-02-21T19:40:58.601Z,101424.84
2019-02-21T19:43:32.756Z,101420.35
2019-02-21T19:46:09.429Z,101418.09
2019-02-21T19:48:46.223Z,101410.50
2019-02-21T19:51:19.316Z,101417.13
2019-02-21T19:54:00.791Z,101416.66
2019-02-21T19:56:35.677Z,101412.66
2019-02-21T19:59:09.265Z,101405.88
2019-02-21T20:01:39.614Z,101407.31
2019-02-21T20:04:09.900Z,101400.66
2019-02-21T20:06:41.228Z,101398.00
2019-02-21T20:09:13.258Z,101401.02
2019-02-21T20:11:43.526Z,101406.30
2019-02-21T20:14:13.799Z,101408.39
2019-02-21T20:16:45.862Z,101416.37
2019-02-21T20:19:16.947Z,101407.95
2019-02-21T20:21:47.380Z,101411.84
2019-02-21T20:24:18.504Z,101411.66
2019-02-21T20:26:49.473Z,101415.66
2019-02-21T20:29:20.132Z,101423.67
2019-02-21T20:31:50.997Z,101421.44
2019-02-21T20:34:22.899Z,101419.61
2019-02-21T20:36:54.019Z,101423.70
2019-02-21T20:39:25.795Z,101429.83
2019-02-21T20:41:57.099Z,101419.54
2019-02-21T20:44:32.306Z,101424.79
2019-02-21T20:47:02.638Z,101422.59
2019-02-21T20:49:32.904Z,101422.59
2019-02-21T20:52:05.782Z,101423.13
2019-02-21T20:54:36.683Z,101426.52
2019-02-21T20:57:09.754Z,101425.30
2019-02-21T20:59:40.491Z,101426.63
2019-02-21T21:02:10.993Z,101423.03
2019-02-21T21:04:41.269Z,101431.01
2019-02-21T21:07:24.545Z,101427.02
2019-02-21T21:09:48.739Z,101430.50
2019-02-21T21:12:19.067Z,101430.14
2019-02-21T21:14:49.328Z,101425.69
2019-02-21T21:17:21.377Z,101426.05
2019-02-21T21:19:52.633Z,101433.16
2019-02-21T21:22:24.596Z,101438.95
2019-02-21T21:24:54.935Z,101436.33
2019-02-21T21:27:25.346Z,101433.16
2019-02-21T21:29:55.710Z,101433.99
2019-02-21T21:32:26.196Z,101439.89
2019-02-21T21:34:56.472Z,101437.48
2019-02-21T21:37:27.216Z,101437.91
2019-02-21T21:39:58.262Z,101440.07
2019-02-21T21:42:28.526Z,101440.58
2019-02-21T21:44:58.811Z,101440.58
2019-02-21T21:47:29.083Z,101440.61
2019-02-21T21:50:01.691Z,101438.84
2019-02-21T21:52:32.334Z,101436.66
2019-02-21T21:55:03.587Z,101442.45
2019-02-21T21:57:33.873Z,101441.44
2019-02-21T22:00:07.225Z,101443.16
2019-02-21T22:02:39.861Z,101437.02
2019-02-21T22:05:10.988Z,101444.49
2019-02-21T22:07:41.333Z,101442.63
2019-02-21T22:10:15.286Z,101435.14
2019-02-21T22:12:45.616Z,101438.13
2019-02-21T22:15:19.495Z,101443.48
2019-02-21T22:17:49.754Z,101438.73
2019-02-21T22:24:12.366Z,101452.34
2019-02-21T22:26:42.652Z,101460.28
2019-02-21T22:29:14.487Z,101458.48
2019-02-21T22:31:44.747Z,101461.22
2019-02-21T22:34:15.942Z,101456.72
2019-02-21T22:36:47.175Z,101453.63
2019-02-21T22:39:17.426Z,101457.08
2019-02-21T22:41:47.716Z,101456.66
2019-02-21T22:44:17.991Z,101464.63
2019-02-21T22:46:48.302Z,101469.38
2019-02-21T22:49:18.568Z,101468.45
2019-02-21T22:51:48.932Z,101482.66
2019-02-21T22:54:19.199Z,101485.68
2019-02-21T22:56:49.478Z,101476.44
2019-02-21T22:59:19.742Z,101475.53
2019-02-21T23:01:50.998Z,101484.85
2019-02-21T23:04:24.777Z,101477.77
2019-02-21T23:06:58.381Z,101474.28
2019-02-21T23:09:28.642Z,101476.44
2019-02-21T23:11:58.920Z,101480.39
2019-02-21T23:14:29.255Z,101484.78
2019-02-21T23:16:59.534Z,101483.34
2019-02-21T23:19:29.783Z,101487.73
2019-02-21T23:22:00.086Z,101485.10
2019-02-21T23:24:30.338Z,101486.03
2019-02-21T23:27:00.608Z,101481.69
2019-02-21T23:29:30.860Z,101487.73
2019-02-21T23:32:03.302Z,101488.27
2019-02-21T23:34:34.747Z,101485.25
2019-02-21T23:37:05.027Z,101490.17
2019-02-21T23:39:38.341Z,101488.48
2019-02-21T23:42:07.294Z,101496.08
2019-02-21T23:44:37.560Z,101497.55
2019-02-21T23:47:07.841Z,101507.47
2019-02-21T23:49:38.122Z,101499.13
2019-02-21T23:52:08.379Z,101508.55
2019-02-21T23:54:39.882Z,101505.02
2019-02-21T23:57:28.512Z,101517.99
2019-02-21T23:59:58.909Z,101513.17
